createdAt,value
2018-04-14T00:01:05.075Z,100510.40
2018-04-14T00:03:33.807Z,100511.17
2018-04-14T00:06:02.171Z,100510.47
2018-04-14T00:08:30.477Z,100506.64
2018-04-14T00:10:58.835Z,100500.61
2018-04-14T00:13:27.155Z,100507.87
2018-04-14T00:15:56.282Z,100505.98
2018-04-14T00:18:25.389Z,100507.70
2018-04-14T00:20:53.767Z,100510.28
2018-04-14T00:23:22.115Z,100515.32
2018-04-14T00:25:50.468Z,100514.83
2018-04-14T00:28:19.590Z,100512.92
2018-04-14T00:30:47.914Z,100523.86
2018-04-14T00:33:16.240Z,100524.83
2018-04-14T00:35:44.984Z,100525.84
2018-04-14T00:38:13.322Z,100520.98
2018-04-14T00:40:41.675Z,100523.79
2018-04-14T00:43:09.986Z,100522.34
2018-04-14T00:45:38.346Z,100524.70
2018-04-14T00:48:06.669Z,100525.98
2018-04-14T00:50:35.020Z,100523.77
2018-04-14T00:53:21.225Z,100522.49
2018-04-14T00:55:49.974Z,100525.62
2018-04-14T00:58:18.718Z,100520.52
2018-04-14T01:00:47.097Z,100522.72
2018-04-14T01:03:16.352Z,100527.09
2018-04-14T01:05:44.682Z,100528.95
2018-04-14T01:08:13.808Z,100526.56
2018-04-14T01:10:42.186Z,100530.50
2018-04-14T01:13:10.545Z,100520.50
2018-04-14T01:15:39.641Z,100494.36
2018-04-14T01:18:07.959Z,100531.64
2018-04-14T01:20:36.322Z,100531.91
2018-04-14T01:23:05.099Z,100527.87
2018-04-14T01:25:33.455Z,100521.31
2018-04-14T01:28:02.561Z,100523.09
2018-04-14T01:30:31.707Z,100530.48
2018-04-14T01:33:00.067Z,100526.64
2018-04-14T01:35:28.444Z,100525.39
2018-04-14T01:37:56.796Z,100531.58
2018-04-14T01:40:25.891Z,100523.28
2018-04-14T01:42:55.014Z,100531.72
2018-04-14T01:45:23.438Z,100532.13
2018-04-14T01:47:51.822Z,100528.16
2018-04-14T01:50:20.194Z,100530.52
2018-04-14T01:52:48.558Z,100527.81
2018-04-14T01:55:16.902Z,100532.50
2018-04-14T01:57:45.250Z,100534.74
2018-04-14T02:00:14.378Z,100536.45
2018-04-14T02:02:42.706Z,100535.94
2018-04-14T02:05:11.083Z,100534.66
2018-04-14T02:07:40.210Z,100539.89
2018-04-14T02:10:08.577Z,100541.69
2018-04-14T02:12:37.675Z,100540.72
2018-04-14T02:15:06.797Z,100549.02
2018-04-14T02:17:35.525Z,100549.57
2018-04-14T02:20:03.886Z,100552.59
2018-04-14T02:22:32.239Z,100546.84
2018-04-14T02:25:00.574Z,100553.91
2018-04-14T02:27:29.702Z,100553.13
2018-04-14T02:29:58.020Z,100554.47
2018-04-14T02:32:26.386Z,100551.82
2018-04-14T02:34:54.717Z,100556.09
2018-04-14T02:37:23.097Z,100558.77
2018-04-14T02:39:52.221Z,100564.09
2018-04-14T02:42:21.306Z,100571.45
2018-04-14T02:44:49.638Z,100570.28
2018-04-14T02:47:18.009Z,100572.05
2018-04-14T02:49:46.354Z,100573.66
2018-04-14T02:52:14.715Z,100573.45
2018-04-14T02:54:43.045Z,100574.45
2018-04-14T02:57:12.172Z,100579.62
2018-04-14T02:59:40.499Z,100571.56
2018-04-14T03:02:08.851Z,100588.01
2018-04-14T03:04:37.191Z,100586.75
2018-04-14T03:07:05.936Z,100594.64
2018-04-14T03:09:34.258Z,100605.67
2018-04-14T03:12:03.340Z,100598.58
2018-04-14T03:14:31.687Z,100608.24
2018-04-14T03:17:00.026Z,100608.32
2018-04-14T03:19:28.409Z,100620.25
2018-04-14T03:21:56.749Z,100621.09
2018-04-14T03:24:25.123Z,100632.98
2018-04-14T03:26:53.448Z,100628.14
2018-04-14T03:29:21.813Z,100645.23
2018-04-14T03:31:50.209Z,100643.05
2018-04-14T03:34:18.565Z,100643.02
2018-04-14T03:36:46.895Z,100646.00
2018-04-14T03:39:15.252Z,100656.11
2018-04-14T03:41:43.590Z,100663.48
2018-04-14T03:44:12.684Z,100664.81
2018-04-14T03:46:41.822Z,100671.91
2018-04-14T03:49:10.145Z,100682.37
2018-04-14T03:51:39.457Z,100680.27
2018-04-14T03:54:08.084Z,100688.86
2018-04-14T03:56:37.213Z,100698.16
2018-04-14T03:59:05.571Z,100703.56
2018-04-14T04:01:33.953Z,100716.78
2018-04-14T04:04:02.282Z,100710.73
2018-04-14T04:06:30.622Z,100724.13
2018-04-14T04:08:58.991Z,100722.81
2018-04-14T04:11:27.311Z,100730.23
2018-04-14T04:17:02.861Z,100744.42
2018-04-14T04:20:11.024Z,100753.73
2018-04-14T04:22:57.003Z,100753.70
2018-04-14T04:25:37.069Z,100762.91
2018-04-14T04:28:05.441Z,100764.28
2018-04-14T04:30:37.856Z,100771.78
2018-04-14T04:33:06.355Z,100774.80
2018-04-14T04:38:40.292Z,100786.61
2018-04-14T04:41:12.844Z,100795.41
2018-04-14T04:43:55.069Z,100798.52
2018-04-14T04:46:23.453Z,100808.61
2018-04-14T04:48:51.795Z,100817.47
2018-04-14T04:51:20.137Z,100829.70
2018-04-14T04:56:49.337Z,100818.64
2018-04-14T04:59:19.450Z,100834.48
2018-04-14T05:01:47.839Z,100850.92
2018-04-14T05:04:16.224Z,100854.78
2018-04-14T05:06:44.547Z,100860.07
2018-04-14T05:09:12.899Z,100862.34
2018-04-14T05:11:41.267Z,100861.72
2018-04-14T05:14:09.645Z,100871.44
2018-04-14T05:16:37.980Z,100866.95
2018-04-14T05:19:07.113Z,100868.98
2018-04-14T05:25:00.409Z,100877.20
2018-04-14T05:27:28.757Z,100887.92
2018-04-14T05:29:57.111Z,100892.77
2018-04-14T05:32:25.833Z,100892.61
2018-04-14T05:34:54.193Z,100908.20
2018-04-14T05:37:22.517Z,100904.48
2018-04-14T05:39:50.916Z,100909.84
2018-04-14T05:42:20.044Z,100912.08
2018-04-14T05:44:48.411Z,100921.96
2018-04-14T05:47:16.721Z,100921.34
2018-04-14T05:49:45.043Z,100929.34
2018-04-14T05:52:14.181Z,100930.02
2018-04-14T05:54:42.503Z,100924.67
2018-04-14T05:57:10.838Z,100926.07
2018-04-14T05:59:39.338Z,100937.79
2018-04-14T06:02:07.688Z,100943.28
2018-04-14T06:04:36.276Z,100941.45
2018-04-14T06:07:04.620Z,100950.28
2018-04-14T06:09:33.700Z,100953.70
2018-04-14T06:12:02.108Z,100956.92
2018-04-14T06:14:30.455Z,100968.61
2018-04-14T06:16:58.824Z,100966.48
2018-04-14T06:19:27.133Z,100976.16
2018-04-14T06:21:57.161Z,100974.91
2018-04-14T06:24:25.647Z,100974.62
2018-04-14T06:26:54.736Z,100981.47
2018-04-14T06:29:23.212Z,100979.02
2018-04-14T06:31:51.542Z,100991.31
2018-04-14T06:34:19.903Z,100994.39
2018-04-14T06:36:48.259Z,101002.30
2018-04-14T06:39:16.628Z,101000.36
2018-04-14T06:41:45.077Z,101003.50
2018-04-14T06:44:14.206Z,101011.59
2018-04-14T06:46:42.587Z,101016.14
2018-04-14T06:49:11.365Z,101014.81
2018-04-14T06:51:39.746Z,101019.66
2018-04-14T06:54:08.114Z,101025.03
2018-04-14T06:56:37.246Z,101028.41
2018-04-14T06:59:05.559Z,101030.87
2018-04-14T07:01:33.922Z,101036.42
2018-04-14T07:04:02.242Z,101039.42
2018-04-14T07:06:31.452Z,101036.27
2018-04-14T07:08:59.775Z,101045.34
2018-04-14T07:11:28.120Z,101045.41
2018-04-14T07:13:56.481Z,101048.55
2018-04-14T07:16:24.796Z,101051.47
2018-04-14T07:18:53.155Z,101048.64
2018-04-14T07:21:21.472Z,101052.61
2018-04-14T07:23:51.363Z,101046.66
2018-04-14T07:26:19.693Z,101058.81
2018-04-14T07:28:48.855Z,101057.42
2018-04-14T07:31:17.184Z,101056.97
2018-04-14T07:33:45.523Z,101063.38
2018-04-14T07:36:14.077Z,101071.98
2018-04-14T07:38:42.403Z,101077.02
2018-04-14T07:41:11.919Z,101074.98
2018-04-14T07:43:40.226Z,101089.25
2018-04-14T07:46:08.639Z,101084.59
2018-04-14T07:48:36.987Z,101084.89
2018-04-14T07:51:05.409Z,101095.36
2018-04-14T07:53:34.515Z,101090.69
2018-04-14T07:56:04.023Z,101089.51
2018-04-14T07:58:33.103Z,101094.25
2018-04-14T08:01:02.611Z,101099.00
2018-04-14T08:03:32.330Z,101097.02
2018-04-14T08:06:01.418Z,101096.61
2018-04-14T08:08:31.293Z,101091.05
2018-04-14T08:11:00.583Z,101093.70
2018-04-14T08:13:28.940Z,101107.41
2018-04-14T08:15:57.340Z,101098.03
2018-04-14T08:18:25.749Z,101098.51
2018-04-14T08:20:54.103Z,101100.53
2018-04-14T08:23:22.456Z,101105.53
2018-04-14T08:25:50.821Z,101105.62
2018-04-14T08:28:19.171Z,101117.49
2018-04-14T08:30:48.283Z,101112.92
2018-04-14T08:33:16.649Z,101125.13
2018-04-14T08:35:45.742Z,101113.25
2018-04-14T08:38:14.880Z,101114.52
2018-04-14T08:40:43.258Z,101115.31
2018-04-14T08:43:11.625Z,101119.14
2018-04-14T08:45:39.960Z,101127.45
2018-04-14T08:48:08.280Z,101131.59
2018-04-14T08:50:36.660Z,101132.25
2018-04-14T08:53:05.002Z,101130.62
2018-04-14T08:55:34.093Z,101136.10
2018-04-14T08:58:03.199Z,101141.91
2018-04-14T09:00:32.297Z,101133.05
2018-04-14T09:03:00.688Z,101139.58
2018-04-14T09:05:29.037Z,101135.80
2018-04-14T09:07:58.146Z,101129.67
2018-04-14T09:10:26.495Z,101133.33
2018-04-14T09:12:54.826Z,101127.41
2018-04-14T09:15:23.211Z,101137.48
2018-04-14T09:17:51.547Z,101133.92
2018-04-14T09:20:21.043Z,101145.56
2018-04-14T09:22:49.400Z,101133.44
2018-04-14T09:25:17.774Z,101125.03
2018-04-14T09:27:46.091Z,101137.92
2018-04-14T09:30:15.243Z,101132.80
2018-04-14T09:32:43.590Z,101135.00
2018-04-14T09:35:11.969Z,101144.86
2018-04-14T09:37:40.308Z,101141.61
2018-04-14T09:40:09.452Z,101148.89
2018-04-14T09:42:37.784Z,101154.64
2018-04-14T09:45:06.899Z,101159.80
2018-04-14T09:47:36.007Z,101165.87
2018-04-14T09:50:04.355Z,101156.69
2018-04-14T09:52:33.767Z,101165.98
2018-04-14T09:55:02.858Z,101163.07
2018-04-14T09:57:31.991Z,101162.80
2018-04-14T10:00:00.312Z,101164.46
2018-04-14T10:02:46.298Z,101160.53
2018-04-14T10:05:14.670Z,101163.56
2018-04-14T10:07:43.007Z,101162.25
2018-04-14T10:10:11.405Z,101164.33
2018-04-14T10:12:39.742Z,101156.01
2018-04-14T10:15:08.085Z,101163.70
2018-04-14T10:17:36.461Z,101160.98
2018-04-14T10:20:04.819Z,101159.72
2018-04-14T10:22:33.178Z,101156.66
2018-04-14T10:25:01.559Z,101164.88
2018-04-14T10:27:29.947Z,101168.27
2018-04-14T10:29:58.268Z,101157.73
2018-04-14T10:32:26.621Z,101157.09
2018-04-14T10:34:54.989Z,101163.40
2018-04-14T10:37:23.409Z,101161.72
2018-04-14T10:39:52.495Z,101162.81
2018-04-14T10:42:20.864Z,101160.08
2018-04-14T10:44:49.246Z,101159.69
2018-04-14T10:47:18.349Z,101163.24
2018-04-14T10:49:47.533Z,101156.11
2018-04-14T10:52:15.911Z,101160.05
2018-04-14T10:54:44.330Z,101161.69
2018-04-14T10:57:12.707Z,101163.63
2018-04-14T10:59:41.111Z,101154.00
2018-04-14T11:02:09.472Z,101141.08
2018-04-14T11:04:37.861Z,101160.11
2018-04-14T11:07:06.241Z,101157.55
2018-04-14T11:09:34.571Z,101154.70
2018-04-14T11:12:02.924Z,101149.13
2018-04-14T11:14:31.303Z,101147.52
2018-04-14T11:16:59.739Z,101150.98
2018-04-14T11:19:29.260Z,101155.33
2018-04-14T11:21:57.622Z,101144.83
2018-04-14T11:24:26.757Z,101147.81
2018-04-14T11:26:55.209Z,101145.08
2018-04-14T11:29:23.534Z,101148.39
2018-04-14T11:31:51.872Z,101141.86
2018-04-14T11:34:20.293Z,101132.58
2018-04-14T11:36:48.670Z,101138.63
2018-04-14T11:39:30.522Z,101137.31
2018-04-14T11:41:58.890Z,101144.43
2018-04-14T11:44:28.534Z,101141.47
2018-04-14T11:46:56.894Z,101132.99
2018-04-14T11:49:25.229Z,101136.02
2018-04-14T11:51:53.885Z,101137.94
2018-04-14T11:54:27.567Z,101139.69
2018-04-14T11:57:00.096Z,101148.18
2018-04-14T11:59:31.798Z,101151.30
2018-04-14T12:02:00.182Z,101147.92
2018-04-14T12:04:28.542Z,101144.08
2018-04-14T12:06:57.720Z,101145.13
2018-04-14T12:09:26.065Z,101141.46
2018-04-14T12:11:55.209Z,101143.73
2018-04-14T12:14:23.651Z,101147.14
2018-04-14T12:16:52.478Z,101141.84
2018-04-14T12:19:21.750Z,101139.11
2018-04-14T12:21:50.291Z,101138.07
2018-04-14T12:24:18.766Z,101138.91
2018-04-14T12:26:47.401Z,101136.70
2018-04-14T12:29:15.883Z,101136.06
2018-04-14T12:31:44.361Z,101129.09
2018-04-14T12:34:12.716Z,101128.33
2018-04-14T12:36:41.825Z,101134.77
2018-04-14T12:39:10.979Z,101132.37
2018-04-14T12:41:39.300Z,101135.47
2018-04-14T12:44:07.862Z,101143.84
2018-04-14T12:46:36.224Z,101131.85
2018-04-14T12:49:04.756Z,101132.45
2018-04-14T12:51:33.722Z,101141.17
2018-04-14T12:54:02.809Z,101137.69
2018-04-14T12:56:32.031Z,101127.53
2018-04-14T12:59:00.538Z,101141.63
2018-04-14T13:01:28.901Z,101140.80
2018-04-14T13:03:58.261Z,101129.36
2018-04-14T13:06:26.630Z,101124.32
2018-04-14T13:08:54.956Z,101130.54
2018-04-14T13:11:23.533Z,101127.22
2018-04-14T13:13:51.889Z,101132.72
2018-04-14T13:16:21.057Z,101124.56
2018-04-14T13:18:49.414Z,101126.15
2018-04-14T13:21:17.837Z,101118.09
2018-04-14T13:23:47.209Z,101122.27
2018-04-14T13:26:16.344Z,101116.09
2018-04-14T13:28:45.452Z,101121.39
2018-04-14T13:31:13.829Z,101121.52
2018-04-14T13:33:42.147Z,101136.99
2018-04-14T13:36:10.665Z,101124.11
2018-04-14T13:38:39.275Z,101131.36
2018-04-14T13:41:07.935Z,101129.66
2018-04-14T13:43:38.701Z,101123.84
2018-04-14T13:46:07.063Z,101123.88
2018-04-14T13:48:36.164Z,101121.87
2018-04-14T13:51:04.545Z,101125.30
2018-04-14T13:53:33.629Z,101117.15
2018-04-14T13:56:03.444Z,101115.31
2018-04-14T13:58:31.766Z,101120.65
2018-04-14T14:01:00.164Z,101116.96
2018-04-14T14:03:29.234Z,101114.70
2018-04-14T14:05:57.558Z,101114.94
2018-04-14T14:08:26.679Z,101109.97
2018-04-14T14:10:55.021Z,101118.86
2018-04-14T14:13:23.376Z,101110.44
2018-04-14T14:15:53.264Z,101114.39
2018-04-14T14:18:21.576Z,101113.84
2018-04-14T14:20:49.940Z,101116.69
2018-04-14T14:23:18.320Z,101119.75
2018-04-14T14:25:46.652Z,101119.61
2018-04-14T14:28:14.976Z,101119.62
2018-04-14T14:30:43.339Z,101119.36
2018-04-14T14:33:11.663Z,101117.78
2018-04-14T14:35:40.746Z,101115.88
2018-04-14T14:38:09.911Z,101124.98
2018-04-14T14:40:38.291Z,101119.13
2018-04-14T14:43:06.831Z,101117.04
2018-04-14T14:45:35.353Z,101121.72
2018-04-14T14:48:03.728Z,101116.40
2018-04-14T14:50:32.102Z,101113.06
2018-04-14T14:53:00.432Z,101110.78
2018-04-14T14:55:29.570Z,101106.84
2018-04-14T14:57:57.944Z,101111.39
2018-04-14T15:00:26.342Z,101103.42
2018-04-14T15:02:54.698Z,101110.50
2018-04-14T15:05:23.136Z,101110.20
2018-04-14T15:07:52.288Z,101112.11
2018-04-14T15:10:20.642Z,101120.15
2018-04-14T15:12:48.963Z,101111.53
2018-04-14T15:15:17.419Z,101115.96
2018-04-14T15:17:45.780Z,101111.92
2018-04-14T15:20:14.147Z,101108.20
2018-04-14T15:22:42.527Z,101111.59
2018-04-14T15:25:10.847Z,101099.61
2018-04-14T15:27:39.257Z,101109.34
2018-04-14T15:30:08.368Z,101115.09
2018-04-14T15:32:36.842Z,101113.95
2018-04-14T15:35:05.979Z,101112.25
2018-04-14T15:37:34.354Z,101112.46
2018-04-14T15:40:02.712Z,101112.45
2018-04-14T15:42:31.073Z,101117.20
2018-04-14T15:45:00.192Z,101117.33
2018-04-14T15:47:28.540Z,101119.75
2018-04-14T15:49:57.733Z,101124.97
2018-04-14T15:52:27.093Z,101121.44
2018-04-14T15:54:55.459Z,101128.80
2018-04-14T15:57:23.829Z,101126.50
2018-04-14T15:59:52.235Z,101133.03
2018-04-14T16:02:20.612Z,101131.44
2018-04-14T16:04:49.393Z,101136.16
2018-04-14T16:07:17.796Z,101137.02
2018-04-14T16:09:46.156Z,101132.48
2018-04-14T16:12:14.493Z,101132.38
2018-04-14T16:14:42.815Z,101146.77
2018-04-14T16:17:11.201Z,101137.20
2018-04-14T16:19:39.533Z,101144.38
2018-04-14T16:22:07.888Z,101145.74
2018-04-14T16:24:37.817Z,101133.97
2018-04-14T16:27:06.186Z,101147.15
2018-04-14T16:29:36.002Z,101145.25
2018-04-14T16:32:05.124Z,101134.68
2018-04-14T16:34:33.467Z,101146.70
2018-04-14T16:37:02.568Z,101143.34
2018-04-14T16:39:31.811Z,101142.07
2018-04-14T16:42:00.151Z,101145.22
2018-04-14T16:44:28.485Z,101146.53
2018-04-14T16:46:56.870Z,101146.59
2018-04-14T16:49:25.289Z,101146.61
2018-04-14T16:51:53.659Z,101154.93
2018-04-14T16:54:22.026Z,101149.73
2018-04-14T16:56:51.145Z,101152.67
2018-04-14T16:59:19.502Z,101157.38
2018-04-14T17:01:49.119Z,101157.30
2018-04-14T17:04:17.549Z,101137.61
2018-04-14T17:06:47.069Z,101149.92
2018-04-14T17:09:15.423Z,101158.06
2018-04-14T17:11:43.722Z,101151.29
2018-04-14T17:14:12.501Z,101148.92
2018-04-14T17:16:40.863Z,101148.64
2018-04-14T17:19:09.273Z,101150.59
2018-04-14T17:21:37.646Z,101152.67
2018-04-14T17:24:07.614Z,101153.89
2018-04-14T17:26:37.501Z,101153.81
2018-04-14T17:29:09.865Z,101154.07
2018-04-14T17:31:39.128Z,101148.38
2018-04-14T17:34:07.604Z,101151.04
2018-04-14T17:36:37.709Z,101156.67
2018-04-14T17:39:06.994Z,101161.42
2018-04-14T17:41:35.410Z,101153.40
2018-04-14T17:44:03.908Z,101162.89
2018-04-14T17:46:32.719Z,101163.73
2018-04-14T17:49:01.167Z,101164.83
2018-04-14T17:51:30.415Z,101166.22
2018-04-14T17:53:59.552Z,101168.09
2018-04-14T17:56:27.912Z,101174.98
2018-04-14T17:58:57.834Z,101177.37
2018-04-14T18:01:26.371Z,101170.91
2018-04-14T18:03:54.884Z,101174.08
2018-04-14T18:06:23.850Z,101172.31
2018-04-14T18:08:52.222Z,101178.52
2018-04-14T18:11:21.503Z,101172.56
2018-04-14T18:13:50.275Z,101178.36
2018-04-14T18:16:18.645Z,101173.85
2018-04-14T18:18:48.103Z,101180.96
2018-04-14T18:21:18.762Z,101185.45
2018-04-14T18:23:47.148Z,101184.19
2018-04-14T18:26:15.575Z,101183.42
2018-04-14T18:28:44.666Z,101187.05
2018-04-14T18:31:14.754Z,101189.75
2018-04-14T18:33:43.114Z,101192.70
2018-04-14T18:36:11.514Z,101189.38
2018-04-14T18:38:39.847Z,101190.24
2018-04-14T18:41:08.225Z,101198.00
2018-04-14T18:43:36.620Z,101198.31
2018-04-14T18:46:05.062Z,101197.67
2018-04-14T18:48:33.747Z,101200.50
2018-04-14T18:51:02.970Z,101205.91
2018-04-14T18:53:31.851Z,101206.95
2018-04-14T18:56:00.952Z,101209.38
2018-04-14T18:58:29.736Z,101207.27
2018-04-14T19:01:11.784Z,101209.61
2018-04-14T19:03:40.174Z,101204.52
2018-04-14T19:06:09.441Z,101208.29
2018-04-14T19:08:38.197Z,101213.94
2018-04-14T19:11:07.309Z,101215.48
2018-04-14T19:13:37.278Z,101208.23
2018-04-14T19:16:06.441Z,101204.30
2018-04-14T19:18:35.852Z,101208.02
2018-04-14T19:21:05.200Z,101207.64
2018-04-14T19:23:33.925Z,101203.13
2018-04-14T19:26:03.058Z,101206.39
2018-04-14T19:28:32.180Z,101200.34
2018-04-14T19:31:00.562Z,101205.66
2018-04-14T19:33:29.290Z,101206.20
2018-04-14T19:35:57.600Z,101198.55
2018-04-14T19:38:27.550Z,101186.41
2018-04-14T19:40:55.906Z,101192.98
2018-04-14T19:43:25.782Z,101187.23
2018-04-14T19:45:54.520Z,101188.62
2018-04-14T19:48:23.665Z,101192.70
2018-04-14T19:50:52.017Z,101192.61
2018-04-14T19:53:20.372Z,101197.59
2018-04-14T19:55:48.713Z,101192.56
2018-04-14T19:58:17.874Z,101188.81
2018-04-14T20:00:46.185Z,101195.28
2018-04-14T20:03:14.555Z,101198.23
2018-04-14T20:05:42.935Z,101198.08
2018-04-14T20:08:11.308Z,101191.20
2018-04-14T20:10:39.714Z,101198.97
2018-04-14T20:13:08.862Z,101194.88
2018-04-14T20:15:37.180Z,101203.75
2018-04-14T20:18:05.976Z,101197.78
2018-04-14T20:20:34.330Z,101197.80
2018-04-14T20:23:02.702Z,101188.15
2018-04-14T20:25:31.041Z,101194.13
2018-04-14T20:27:59.413Z,101197.84
2018-04-14T20:30:27.746Z,101197.52
2018-04-14T20:32:56.094Z,101196.76
2018-04-14T20:35:24.877Z,101196.33
2018-04-14T20:37:53.226Z,101191.72
2018-04-14T20:40:21.573Z,101195.05
2018-04-14T20:42:50.693Z,101191.52
2018-04-14T20:45:19.409Z,101185.75
2018-04-14T20:47:47.801Z,101191.46
2018-04-14T20:50:16.135Z,101192.98
2018-04-14T20:52:45.847Z,101195.76
2018-04-14T20:55:14.276Z,101190.05
2018-04-14T20:57:42.661Z,101195.32
2018-04-14T21:00:11.047Z,101194.80
2018-04-14T21:02:40.931Z,101190.89
2018-04-14T21:05:10.143Z,101191.98
2018-04-14T21:07:38.724Z,101187.34
2018-04-14T21:10:07.089Z,101189.77
2018-04-14T21:12:35.440Z,101193.55
2018-04-14T21:15:03.854Z,101198.61
2018-04-14T21:17:32.195Z,101191.81
2018-04-14T21:20:00.680Z,101195.19
2018-04-14T21:22:29.047Z,101191.78
2018-04-14T21:24:57.427Z,101193.30
2018-04-14T21:27:26.184Z,101195.34
2018-04-14T21:29:55.289Z,101182.11
2018-04-14T21:32:25.171Z,101184.05
2018-04-14T21:34:54.308Z,101177.59
2018-04-14T21:37:23.523Z,101177.31
2018-04-14T21:39:52.095Z,101178.28
2018-04-14T21:42:20.500Z,101176.02
2018-04-14T21:44:48.936Z,101178.38
2018-04-14T21:47:18.045Z,101177.16
2018-04-14T21:49:46.432Z,101176.34
2018-04-14T21:52:14.761Z,101176.62
2018-04-14T21:54:43.139Z,101175.87
2018-04-14T21:57:11.497Z,101180.67
2018-04-14T21:59:39.868Z,101175.09
2018-04-14T22:02:08.188Z,101177.21
2018-04-14T22:04:36.534Z,101169.94
2018-04-14T22:07:04.848Z,101180.19
2018-04-14T22:09:33.972Z,101189.05
2018-04-14T22:12:02.340Z,101187.78
2018-04-14T22:14:33.841Z,101190.02
2018-04-14T22:17:02.213Z,101191.33
2018-04-14T22:19:30.548Z,101192.67
2018-04-14T22:21:58.901Z,101187.01
2018-04-14T22:24:27.249Z,101188.88
2018-04-14T22:26:55.660Z,101189.35
2018-04-14T22:29:23.999Z,101192.14
2018-04-14T22:31:52.357Z,101196.59
2018-04-14T22:34:20.688Z,101189.89
2018-04-14T22:36:49.068Z,101193.02
2018-04-14T22:39:17.397Z,101192.26
2018-04-14T22:41:45.722Z,101182.53
2018-04-14T22:44:14.865Z,101180.19
2018-04-14T22:46:43.195Z,101190.03
2018-04-14T22:49:11.508Z,101180.92
2018-04-14T22:51:39.921Z,101173.47
2018-04-14T22:54:08.293Z,101181.05
2018-04-14T22:56:36.624Z,101178.41
2018-04-14T22:59:05.699Z,101180.59
2018-04-14T23:01:34.056Z,101174.33
2018-04-14T23:04:02.789Z,101176.52
2018-04-14T23:06:31.149Z,101168.98
2018-04-14T23:09:00.629Z,101169.39
2018-04-14T23:11:28.967Z,101165.33
2018-04-14T23:13:57.731Z,101173.25
2018-04-14T23:16:26.097Z,101164.88
2018-04-14T23:18:55.193Z,101172.53
2018-04-14T23:21:24.332Z,101162.61
2018-04-14T23:23:53.461Z,101160.69
2018-04-14T23:26:21.794Z,101154.69
2018-04-14T23:28:50.141Z,101148.70
2018-04-14T23:31:19.286Z,101150.61
2018-04-14T23:33:47.612Z,101152.09
2018-04-14T23:36:16.754Z,101159.77
2018-04-14T23:38:45.121Z,101149.23
2018-04-14T23:41:13.465Z,101147.59
2018-04-14T23:43:42.569Z,101148.14
2018-04-14T23:46:11.687Z,101145.59
2018-04-14T23:48:40.025Z,101140.71
2018-04-14T23:51:09.161Z,101146.79
2018-04-14T23:53:37.498Z,101139.63
2018-04-14T23:56:05.889Z,101137.77
2018-04-14T23:58:34.993Z,101139.96
